Terminal Aerodrome Forecast
Issued by NWS

Home | Current Version | Previous Version | Graphics & Text | Print | Product List | Glossary On
Versions: 1 2 3 4 5 6 7 8 9 10 11 12 13 14 15 16 17 18 19
000
FTUS43 KOAX 272325
TAFCDR
TAF
KCDR 272325Z 2800/2824 24008KT P6SM SCT100
      TEMPO 2802/2806 1SM BR BKN015
     FM280600 25006KT P6SM SCT100
     FM281500 20009KT P6SM BKN100
     FM281900 09006KT P6SM OVC040=

USA.gov is the U.S. government's official web portal to all federal, state and local government web resources and services.